CJL9 weather

Radisson Airport
Radisson, Saskatchewan, Canada

Public forecast

Using degrees Celsius for public forecast. Weather courtesy of forecast.io.

METAR (pilot weather report)

Closest report is Saskatoon John G. Diefenbaker International Airport, 30.4 nm (56.3 km) SE. Retrieved 2019/04/23 16:00 UTC (10 minutes ago):

CYXE 231600Z 30016KT 15SM FEW120 OVC260 15/02 A2975 RMK AC1CI7 SLP084 DENSITY ALT 2300FT

TAF (pilot weather forecast)

Closest forecast is Saskatoon John G. Diefenbaker International Airport, 30.4 nm (56.3 km) SE. Retrieved 2019/04/23 12:42 UTC (3 hours ago):

TAF CYXE 231139Z 2312/2412 29012KT P6SM BKN150 BECMG 2313/2315 31015G25KT FEW120 FM231800 30015G25KT P6SM SCT080 BECMG 2319/2321 29020G30KT FM240100 30012KT P6SM SKC RMK NXT FCST BY 231800Z